sensor_id;sensor_type;location;lat;lon;timestamp;temperature;humidity
19138;DHT22;68178;52.188;5.598;2023-05-18T00:01:31;7.70;99.90
19138;DHT22;68178;52.188;5.598;2023-05-18T00:03:57;7.70;99.90
19138;DHT22;68178;52.188;5.598;2023-05-18T00:06:22;7.70;99.90
19138;DHT22;68178;52.188;5.598;2023-05-18T00:08:50;7.70;99.90
19138;DHT22;68178;52.188;5.598;2023-05-18T00:11:16;7.70;99.90
19138;DHT22;68178;52.188;5.598;2023-05-18T00:13:42;7.60;99.90
19138;DHT22;68178;52.188;5.598;2023-05-18T00:16:08;7.50;99.90
19138;DHT22;68178;52.188;5.598;2023-05-18T00:18:33;7.50;99.90
19138;DHT22;68178;52.188;5.598;2023-05-18T00:21:00;7.50;99.90
19138;DHT22;68178;52.188;5.598;2023-05-18T00:23:29;7.40;99.90
19138;DHT22;68178;52.188;5.598;2023-05-18T00:25:58;7.40;99.90
19138;DHT22;68178;52.188;5.598;2023-05-18T00:28:24;7.30;99.90
19138;DHT22;68178;52.188;5.598;2023-05-18T00:30:50;7.30;99.90
19138;DHT22;68178;52.188;5.598;2023-05-18T00:33:16;7.30;99.90
19138;DHT22;68178;52.188;5.598;2023-05-18T00:35:41;7.30;99.90
19138;DHT22;68178;52.188;5.598;2023-05-18T00:38:07;7.20;99.90
19138;DHT22;68178;52.188;5.598;2023-05-18T00:40:33;7.20;99.90
19138;DHT22;68178;52.188;5.598;2023-05-18T00:42:58;7.20;99.90
19138;DHT22;68178;52.188;5.598;2023-05-18T00:45:25;7.10;99.90
19138;DHT22;68178;52.188;5.598;2023-05-18T00:47:51;7.00;99.90
19138;DHT22;68178;52.188;5.598;2023-05-18T00:50:17;7.10;99.90
19138;DHT22;68178;52.188;5.598;2023-05-18T00:52:44;7.00;99.90
19138;DHT22;68178;52.188;5.598;2023-05-18T00:55:11;7.00;99.90
19138;DHT22;68178;52.188;5.598;2023-05-18T00:57:37;7.10;99.90
19138;DHT22;68178;52.188;5.598;2023-05-18T01:00:04;7.00;99.90
19138;DHT22;68178;52.188;5.598;2023-05-18T01:02:32;6.90;99.90
19138;DHT22;68178;52.188;5.598;2023-05-18T01:05:01;6.90;99.90
19138;DHT22;68178;52.188;5.598;2023-05-18T01:07:29;6.90;99.90
19138;DHT22;68178;52.188;5.598;2023-05-18T01:09:57;6.80;99.90
19138;DHT22;68178;52.188;5.598;2023-05-18T01:12:34;6.70;99.90
19138;DHT22;68178;52.188;5.598;2023-05-18T01:15:25;6.70;99.90
19138;DHT22;68178;52.188;5.598;2023-05-18T01:18:18;6.70;99.90
19138;DHT22;68178;52.188;5.598;2023-05-18T01:20:49;6.70;99.90
19138;DHT22;68178;52.188;5.598;2023-05-18T01:26:27;6.80;99.90
19138;DHT22;68178;52.188;5.598;2023-05-18T01:29:02;6.80;99.90
19138;DHT22;68178;52.188;5.598;2023-05-18T01:31:28;6.80;99.90
19138;DHT22;68178;52.188;5.598;2023-05-18T01:33:54;6.70;99.90
19138;DHT22;68178;52.188;5.598;2023-05-18T01:36:20;6.70;99.90
19138;DHT22;68178;52.188;5.598;2023-05-18T01:38:46;6.70;99.90
19138;DHT22;68178;52.188;5.598;2023-05-18T01:41:21;6.70;99.90
19138;DHT22;68178;52.188;5.598;2023-05-18T01:49:01;6.60;99.90
19138;DHT22;68178;52.188;5.598;2023-05-18T01:51:32;6.60;99.90
19138;DHT22;68178;52.188;5.598;2023-05-18T01:54:04;6.60;99.90
19138;DHT22;68178;52.188;5.598;2023-05-18T01:56:32;6.60;99.90
19138;DHT22;68178;52.188;5.598;2023-05-18T01:58:58;6.50;99.90
19138;DHT22;68178;52.188;5.598;2023-05-18T02:01:24;6.50;99.90
19138;DHT22;68178;52.188;5.598;2023-05-18T02:03:50;6.50;99.90
19138;DHT22;68178;52.188;5.598;2023-05-18T02:06:15;6.50;99.90
19138;DHT22;68178;52.188;5.598;2023-05-18T02:08:42;6.60;99.90
19138;DHT22;68178;52.188;5.598;2023-05-18T02:11:07;6.50;99.90
19138;DHT22;68178;52.188;5.598;2023-05-18T02:13:33;6.50;99.90
19138;DHT22;68178;52.188;5.598;2023-05-18T02:15:58;6.50;99.90
19138;DHT22;68178;52.188;5.598;2023-05-18T02:18:24;6.60;99.90
19138;DHT22;68178;52.188;5.598;2023-05-18T02:20:59;6.50;99.90
19138;DHT22;68178;52.188;5.598;2023-05-18T02:23:25;6.60;99.90
19138;DHT22;68178;52.188;5.598;2023-05-18T02:25:51;6.60;99.90
19138;DHT22;68178;52.188;5.598;2023-05-18T02:28:20;6.50;99.90
19138;DHT22;68178;52.188;5.598;2023-05-18T02:30:45;6.50;99.90
19138;DHT22;68178;52.188;5.598;2023-05-18T02:33:11;6.60;99.90
19138;DHT22;68178;52.188;5.598;2023-05-18T02:35:37;6.60;99.90
19138;DHT22;68178;52.188;5.598;2023-05-18T02:38:02;6.60;99.90
19138;DHT22;68178;52.188;5.598;2023-05-18T02:40:28;6.60;99.90
19138;DHT22;68178;52.188;5.598;2023-05-18T02:42:54;6.50;99.90
19138;DHT22;68178;52.188;5.598;2023-05-18T02:45:19;6.50;99.90
19138;DHT22;68178;52.188;5.598;2023-05-18T02:47:45;6.40;99.90
19138;DHT22;68178;52.188;5.598;2023-05-18T02:50:11;6.30;99.90
19138;DHT22;68178;52.188;5.598;2023-05-18T02:52:37;6.30;99.90
19138;DHT22;68178;52.188;5.598;2023-05-18T02:55:04;6.30;99.90
19138;DHT22;68178;52.188;5.598;2023-05-18T02:57:30;6.30;99.90
19138;DHT22;68178;52.188;5.598;2023-05-18T02:59:57;6.20;99.90
19138;DHT22;68178;52.188;5.598;2023-05-18T03:02:22;6.20;99.90
19138;DHT22;68178;52.188;5.598;2023-05-18T03:04:48;6.20;99.90
19138;DHT22;68178;52.188;5.598;2023-05-18T03:07:21;6.30;99.90
19138;DHT22;68178;52.188;5.598;2023-05-18T03:09:47;6.20;99.90
19138;DHT22;68178;52.188;5.598;2023-05-18T03:12:12;6.30;99.90
19138;DHT22;68178;52.188;5.598;2023-05-18T03:14:38;6.20;99.90
19138;DHT22;68178;52.188;5.598;2023-05-18T03:17:04;6.20;99.90
19138;DHT22;68178;52.188;5.598;2023-05-18T03:19:31;6.10;99.90
19138;DHT22;68178;52.188;5.598;2023-05-18T03:21:57;6.10;99.90
19138;DHT22;68178;52.188;5.598;2023-05-18T03:24:22;6.10;99.90
19138;DHT22;68178;52.188;5.598;2023-05-18T03:26:51;6.10;99.90
19138;DHT22;68178;52.188;5.598;2023-05-18T03:29:19;6.10;99.90
19138;DHT22;68178;52.188;5.598;2023-05-18T03:31:45;6.10;99.90
19138;DHT22;68178;52.188;5.598;2023-05-18T03:34:11;6.10;99.90
19138;DHT22;68178;52.188;5.598;2023-05-18T03:36:36;6.10;99.90
19138;DHT22;68178;52.188;5.598;2023-05-18T03:39:03;6.10;99.90
19138;DHT22;68178;52.188;5.598;2023-05-18T03:41:30;6.10;99.90
19138;DHT22;68178;52.188;5.598;2023-05-18T03:43:56;6.10;99.90
19138;DHT22;68178;52.188;5.598;2023-05-18T03:46:22;6.10;99.90
19138;DHT22;68178;52.188;5.598;2023-05-18T03:48:48;6.10;99.90
19138;DHT22;68178;52.188;5.598;2023-05-18T03:51:13;6.00;99.90
19138;DHT22;68178;52.188;5.598;2023-05-18T03:53:39;6.00;99.90
19138;DHT22;68178;52.188;5.598;2023-05-18T03:56:06;6.10;99.90
19138;DHT22;68178;52.188;5.598;2023-05-18T03:58:32;6.10;99.90
19138;DHT22;68178;52.188;5.598;2023-05-18T04:00:57;6.10;99.90
19138;DHT22;68178;52.188;5.598;2023-05-18T04:03:23;6.00;99.90
19138;DHT22;68178;52.188;5.598;2023-05-18T04:05:51;6.10;99.90
19138;DHT22;68178;52.188;5.598;2023-05-18T04:08:18;6.10;99.90
19138;DHT22;68178;52.188;5.598;2023-05-18T04:10:44;6.20;99.90
19138;DHT22;68178;52.188;5.598;2023-05-18T04:13:10;6.20;99.90
19138;DHT22;68178;52.188;5.598;2023-05-18T04:15:36;6.20;99.90
19138;DHT22;68178;52.188;5.598;2023-05-18T04:18:02;6.20;99.90
19138;DHT22;68178;52.188;5.598;2023-05-18T04:20:28;6.20;99.90
19138;DHT22;68178;52.188;5.598;2023-05-18T04:22:54;6.20;99.90
19138;DHT22;68178;52.188;5.598;2023-05-18T04:25:21;6.30;99.90
19138;DHT22;68178;52.188;5.598;2023-05-18T04:27:51;6.30;99.90
19138;DHT22;68178;52.188;5.598;2023-05-18T04:30:17;6.30;99.90
19138;DHT22;68178;52.188;5.598;2023-05-18T04:32:43;6.30;99.90
19138;DHT22;68178;52.188;5.598;2023-05-18T04:35:09;6.40;99.90
19138;DHT22;68178;52.188;5.598;2023-05-18T04:37:35;6.40;99.90
19138;DHT22;68178;52.188;5.598;2023-05-18T04:40:05;6.50;99.90
19138;DHT22;68178;52.188;5.598;2023-05-18T04:42:32;6.50;99.90
19138;DHT22;68178;52.188;5.598;2023-05-18T04:45:00;6.50;99.90
19138;DHT22;68178;52.188;5.598;2023-05-18T04:47:25;6.60;99.90
19138;DHT22;68178;52.188;5.598;2023-05-18T04:49:51;6.70;99.90
19138;DHT22;68178;52.188;5.598;2023-05-18T04:52:19;6.70;99.90
19138;DHT22;68178;52.188;5.598;2023-05-18T04:54:46;6.80;99.90
19138;DHT22;68178;52.188;5.598;2023-05-18T04:57:12;6.90;99.90
19138;DHT22;68178;52.188;5.598;2023-05-18T04:59:39;6.90;99.90
19138;DHT22;68178;52.188;5.598;2023-05-18T05:02:08;7.00;99.90
19138;DHT22;68178;52.188;5.598;2023-05-18T05:04:34;7.10;99.90
19138;DHT22;68178;52.188;5.598;2023-05-18T05:06:59;7.30;99.90
19138;DHT22;68178;52.188;5.598;2023-05-18T05:09:25;7.50;99.90
19138;DHT22;68178;52.188;5.598;2023-05-18T05:11:50;7.60;99.90
19138;DHT22;68178;52.188;5.598;2023-05-18T05:14:16;7.70;99.90
19138;DHT22;68178;52.188;5.598;2023-05-18T05:16:41;7.80;99.90
19138;DHT22;68178;52.188;5.598;2023-05-18T05:19:07;8.00;99.90
19138;DHT22;68178;52.188;5.598;2023-05-18T05:21:32;8.10;99.90
19138;DHT22;68178;52.188;5.598;2023-05-18T05:23:58;8.20;99.90
19138;DHT22;68178;52.188;5.598;2023-05-18T05:26:25;8.50;99.90
19138;DHT22;68178;52.188;5.598;2023-05-18T05:28:51;8.50;99.90
19138;DHT22;68178;52.188;5.598;2023-05-18T05:31:16;8.70;99.90
19138;DHT22;68178;52.188;5.598;2023-05-18T05:33:42;8.80;99.90
19138;DHT22;68178;52.188;5.598;2023-05-18T05:36:09;8.90;99.90
19138;DHT22;68178;52.188;5.598;2023-05-18T05:38:36;9.10;99.90
19138;DHT22;68178;52.188;5.598;2023-05-18T05:41:01;9.20;99.90
19138;DHT22;68178;52.188;5.598;2023-05-18T05:43:27;9.30;99.90
19138;DHT22;68178;52.188;5.598;2023-05-18T05:45:53;9.60;99.90
19138;DHT22;68178;52.188;5.598;2023-05-18T05:48:18;9.80;99.90
19138;DHT22;68178;52.188;5.598;2023-05-18T05:50:44;9.90;99.90
19138;DHT22;68178;52.188;5.598;2023-05-18T05:53:10;10.00;99.90
19138;DHT22;68178;52.188;5.598;2023-05-18T05:55:35;10.00;99.90
19138;DHT22;68178;52.188;5.598;2023-05-18T05:58:05;10.10;99.90
19138;DHT22;68178;52.188;5.598;2023-05-18T06:00:31;10.20;99.90
19138;DHT22;68178;52.188;5.598;2023-05-18T06:02:57;10.30;99.90
19138;DHT22;68178;52.188;5.598;2023-05-18T06:05:23;10.30;99.90
19138;DHT22;68178;52.188;5.598;2023-05-18T06:07:48;10.40;99.90
19138;DHT22;68178;52.188;5.598;2023-05-18T06:10:14;10.60;99.90
19138;DHT22;68178;52.188;5.598;2023-05-18T06:12:40;10.70;99.90
19138;DHT22;68178;52.188;5.598;2023-05-18T06:15:06;10.70;99.90
19138;DHT22;68178;52.188;5.598;2023-05-18T06:17:32;10.90;99.90
19138;DHT22;68178;52.188;5.598;2023-05-18T06:19:58;10.80;99.90
19138;DHT22;68178;52.188;5.598;2023-05-18T06:22:23;10.60;99.90
19138;DHT22;68178;52.188;5.598;2023-05-18T06:24:49;10.50;99.90
19138;DHT22;68178;52.188;5.598;2023-05-18T06:27:15;10.40;99.90
19138;DHT22;68178;52.188;5.598;2023-05-18T06:29:41;10.40;99.90
19138;DHT22;68178;52.188;5.598;2023-05-18T06:32:06;10.40;99.90
19138;DHT22;68178;52.188;5.598;2023-05-18T06:34:32;10.60;99.90
19138;DHT22;68178;52.188;5.598;2023-05-18T06:36:58;10.70;99.90
19138;DHT22;68178;52.188;5.598;2023-05-18T06:39:24;11.00;99.90
19138;DHT22;68178;52.188;5.598;2023-05-18T06:41:49;11.40;99.90
19138;DHT22;68178;52.188;5.598;2023-05-18T06:44:16;11.70;99.90
19138;DHT22;68178;52.188;5.598;2023-05-18T06:46:42;11.80;99.90
19138;DHT22;68178;52.188;5.598;2023-05-18T06:49:07;12.00;99.90
19138;DHT22;68178;52.188;5.598;2023-05-18T06:51:33;12.10;99.90
19138;DHT22;68178;52.188;5.598;2023-05-18T06:53:58;12.40;99.90
19138;DHT22;68178;52.188;5.598;2023-05-18T06:56:24;12.50;99.90
19138;DHT22;68178;52.188;5.598;2023-05-18T06:58:50;12.60;99.90
19138;DHT22;68178;52.188;5.598;2023-05-18T07:01:16;12.70;99.90
19138;DHT22;68178;52.188;5.598;2023-05-18T07:03:44;12.80;99.90
19138;DHT22;68178;52.188;5.598;2023-05-18T07:06:09;12.80;99.90
19138;DHT22;68178;52.188;5.598;2023-05-18T07:08:35;12.70;99.90
19138;DHT22;68178;52.188;5.598;2023-05-18T07:11:04;12.90;99.90
19138;DHT22;68178;52.188;5.598;2023-05-18T07:13:31;12.60;99.90
19138;DHT22;68178;52.188;5.598;2023-05-18T07:15:56;12.60;99.90
19138;DHT22;68178;52.188;5.598;2023-05-18T07:18:22;12.60;99.90
19138;DHT22;68178;52.188;5.598;2023-05-18T07:20:48;12.70;99.90
19138;DHT22;68178;52.188;5.598;2023-05-18T07:23:13;12.40;99.90
19138;DHT22;68178;52.188;5.598;2023-05-18T07:25:39;12.50;99.90
19138;DHT22;68178;52.188;5.598;2023-05-18T07:28:05;12.70;99.90
19138;DHT22;68178;52.188;5.598;2023-05-18T07:30:31;13.00;99.90
19138;DHT22;68178;52.188;5.598;2023-05-18T07:32:57;13.10;99.90
19138;DHT22;68178;52.188;5.598;2023-05-18T07:35:22;12.80;99.90
19138;DHT22;68178;52.188;5.598;2023-05-18T07:37:52;12.80;99.90
19138;DHT22;68178;52.188;5.598;2023-05-18T07:40:19;12.70;99.90
19138;DHT22;68178;52.188;5.598;2023-05-18T07:42:45;12.80;99.90
19138;DHT22;68178;52.188;5.598;2023-05-18T07:45:11;12.70;99.90
19138;DHT22;68178;52.188;5.598;2023-05-18T07:47:37;12.90;99.90
19138;DHT22;68178;52.188;5.598;2023-05-18T07:50:03;12.80;99.90
19138;DHT22;68178;52.188;5.598;2023-05-18T07:52:28;12.80;99.90
19138;DHT22;68178;52.188;5.598;2023-05-18T07:54:55;13.10;99.90
19138;DHT22;68178;52.188;5.598;2023-05-18T07:57:24;13.30;99.90
19138;DHT22;68178;52.188;5.598;2023-05-18T07:59:50;12.90;99.90
19138;DHT22;68178;52.188;5.598;2023-05-18T08:02:16;13.00;99.90
19138;DHT22;68178;52.188;5.598;2023-05-18T08:04:44;13.50;99.90
19138;DHT22;68178;52.188;5.598;2023-05-18T08:07:09;13.40;99.90
19138;DHT22;68178;52.188;5.598;2023-05-18T08:09:37;13.40;99.90
19138;DHT22;68178;52.188;5.598;2023-05-18T08:12:02;13.70;99.90
19138;DHT22;68178;52.188;5.598;2023-05-18T08:14:28;13.50;99.90
19138;DHT22;68178;52.188;5.598;2023-05-18T08:16:53;12.90;99.90
19138;DHT22;68178;52.188;5.598;2023-05-18T08:19:19;12.60;99.90
19138;DHT22;68178;52.188;5.598;2023-05-18T08:21:44;12.80;99.90
19138;DHT22;68178;52.188;5.598;2023-05-18T08:24:10;12.80;99.90
19138;DHT22;68178;52.188;5.598;2023-05-18T08:26:36;12.60;99.90
19138;DHT22;68178;52.188;5.598;2023-05-18T08:29:02;12.80;99.90
19138;DHT22;68178;52.188;5.598;2023-05-18T08:31:37;12.50;99.90
19138;DHT22;68178;52.188;5.598;2023-05-18T08:34:04;12.50;99.90
19138;DHT22;68178;52.188;5.598;2023-05-18T08:36:31;12.70;99.90
19138;DHT22;68178;52.188;5.598;2023-05-18T08:38:57;13.00;99.90
19138;DHT22;68178;52.188;5.598;2023-05-18T08:44:15;13.40;99.90
19138;DHT22;68178;52.188;5.598;2023-05-18T08:46:48;13.60;99.90
19138;DHT22;68178;52.188;5.598;2023-05-18T08:49:17;13.00;99.90
19138;DHT22;68178;52.188;5.598;2023-05-18T08:51:45;13.00;99.90
19138;DHT22;68178;52.188;5.598;2023-05-18T08:54:21;13.00;99.90
19138;DHT22;68178;52.188;5.598;2023-05-18T08:56:47;13.10;99.90
19138;DHT22;68178;52.188;5.598;2023-05-18T08:59:18;13.20;99.90
19138;DHT22;68178;52.188;5.598;2023-05-18T09:01:47;13.00;99.90
19138;DHT22;68178;52.188;5.598;2023-05-18T09:04:13;12.80;99.90
19138;DHT22;68178;52.188;5.598;2023-05-18T09:06:39;12.90;99.90
19138;DHT22;68178;52.188;5.598;2023-05-18T09:09:05;13.40;99.90
19138;DHT22;68178;52.188;5.598;2023-05-18T09:11:33;13.70;99.90
19138;DHT22;68178;52.188;5.598;2023-05-18T09:13:59;13.80;99.90
19138;DHT22;68178;52.188;5.598;2023-05-18T09:16:25;14.10;99.90
19138;DHT22;68178;52.188;5.598;2023-05-18T09:18:52;14.00;99.90
19138;DHT22;68178;52.188;5.598;2023-05-18T09:21:20;13.50;99.90
19138;DHT22;68178;52.188;5.598;2023-05-18T09:23:46;13.50;99.90
19138;DHT22;68178;52.188;5.598;2023-05-18T09:26:12;13.80;99.90
19138;DHT22;68178;52.188;5.598;2023-05-18T09:28:39;14.30;99.90
19138;DHT22;68178;52.188;5.598;2023-05-18T09:31:08;14.30;99.90
19138;DHT22;68178;52.188;5.598;2023-05-18T09:33:38;14.10;99.90
19138;DHT22;68178;52.188;5.598;2023-05-18T09:36:08;14.20;99.90
19138;DHT22;68178;52.188;5.598;2023-05-18T09:38:38;14.30;99.90
19138;DHT22;68178;52.188;5.598;2023-05-18T09:41:09;14.20;99.90
19138;DHT22;68178;52.188;5.598;2023-05-18T09:43:35;14.20;99.90
19138;DHT22;68178;52.188;5.598;2023-05-18T09:46:06;14.30;99.90
19138;DHT22;68178;52.188;5.598;2023-05-18T09:48:34;14.10;99.90
19138;DHT22;68178;52.188;5.598;2023-05-18T09:51:00;14.30;99.90
19138;DHT22;68178;52.188;5.598;2023-05-18T09:53:25;14.50;99.90
19138;DHT22;68178;52.188;5.598;2023-05-18T09:55:54;15.20;99.90
19138;DHT22;68178;52.188;5.598;2023-05-18T09:58:19;15.70;99.90
19138;DHT22;68178;52.188;5.598;2023-05-18T10:00:48;15.70;99.90
19138;DHT22;68178;52.188;5.598;2023-05-18T10:03:23;15.40;99.90
19138;DHT22;68178;52.188;5.598;2023-05-18T10:05:50;15.60;99.90
19138;DHT22;68178;52.188;5.598;2023-05-18T10:08:16;15.60;99.90
19138;DHT22;68178;52.188;5.598;2023-05-18T10:10:44;15.60;99.90
19138;DHT22;68178;52.188;5.598;2023-05-18T10:13:14;15.90;99.90
19138;DHT22;68178;52.188;5.598;2023-05-18T10:15:49;15.60;99.90
19138;DHT22;68178;52.188;5.598;2023-05-18T10:18:23;15.50;99.90
19138;DHT22;68178;52.188;5.598;2023-05-18T10:20:51;15.60;99.90
19138;DHT22;68178;52.188;5.598;2023-05-18T10:23:19;15.90;99.90
19138;DHT22;68178;52.188;5.598;2023-05-18T10:25:46;16.10;98.10
19138;DHT22;68178;52.188;5.598;2023-05-18T10:28:16;16.20;98.10
19138;DHT22;68178;52.188;5.598;2023-05-18T10:30:44;16.10;99.70
19138;DHT22;68178;52.188;5.598;2023-05-18T10:33:10;16.20;99.50
19138;DHT22;68178;52.188;5.598;2023-05-18T10:35:37;16.00;99.50
19138;DHT22;68178;52.188;5.598;2023-05-18T10:38:04;16.00;99.10
19138;DHT22;68178;52.188;5.598;2023-05-18T10:40:31;16.30;98.90
19138;DHT22;68178;52.188;5.598;2023-05-18T10:42:58;16.50;99.50
19138;DHT22;68178;52.188;5.598;2023-05-18T10:45:26;16.60;96.10
19138;DHT22;68178;52.188;5.598;2023-05-18T10:47:52;16.60;97.10
19138;DHT22;68178;52.188;5.598;2023-05-18T10:50:22;16.70;98.20
19138;DHT22;68178;52.188;5.598;2023-05-18T10:52:49;16.70;98.90
19138;DHT22;68178;52.188;5.598;2023-05-18T10:55:16;16.50;99.60
19138;DHT22;68178;52.188;5.598;2023-05-18T10:57:46;16.60;99.90
19138;DHT22;68178;52.188;5.598;2023-05-18T11:00:15;17.00;99.60
19138;DHT22;68178;52.188;5.598;2023-05-18T11:02:41;17.00;96.00
19138;DHT22;68178;52.188;5.598;2023-05-18T11:05:10;16.80;98.00
19138;DHT22;68178;52.188;5.598;2023-05-18T11:07:37;17.10;95.90
19138;DHT22;68178;52.188;5.598;2023-05-18T11:10:10;16.90;95.20
19138;DHT22;68178;52.188;5.598;2023-05-18T11:12:39;17.40;97.80
19138;DHT22;68178;52.188;5.598;2023-05-18T11:15:05;17.20;98.20
19138;DHT22;68178;52.188;5.598;2023-05-18T11:17:31;17.10;99.90
19138;DHT22;68178;52.188;5.598;2023-05-18T11:25:48;17.90;97.10
19138;DHT22;68178;52.188;5.598;2023-05-18T11:28:14;17.80;96.70
19138;DHT22;68178;52.188;5.598;2023-05-18T11:33:40;17.90;96.40
19138;DHT22;68178;52.188;5.598;2023-05-18T11:36:11;18.10;96.60
19138;DHT22;68178;52.188;5.598;2023-05-18T11:38:54;17.80;96.00
19138;DHT22;68178;52.188;5.598;2023-05-18T11:44:14;17.80;95.80
19138;DHT22;68178;52.188;5.598;2023-05-18T11:49:20;18.40;94.40
19138;DHT22;68178;52.188;5.598;2023-05-18T11:52:26;18.70;93.00
19138;DHT22;68178;52.188;5.598;2023-05-18T11:54:58;19.00;91.60
19138;DHT22;68178;52.188;5.598;2023-05-18T11:57:26;18.80;94.50
19138;DHT22;68178;52.188;5.598;2023-05-18T11:59:57;18.60;95.40
19138;DHT22;68178;52.188;5.598;2023-05-18T12:02:24;18.60;93.30
19138;DHT22;68178;52.188;5.598;2023-05-18T12:04:54;18.10;94.50
19138;DHT22;68178;52.188;5.598;2023-05-18T12:07:22;17.80;93.60
19138;DHT22;68178;52.188;5.598;2023-05-18T12:09:49;17.90;94.60
19138;DHT22;68178;52.188;5.598;2023-05-18T12:12:16;17.90;92.90
19138;DHT22;68178;52.188;5.598;2023-05-18T12:14:49;17.80;96.00
19138;DHT22;68178;52.188;5.598;2023-05-18T12:17:17;17.60;92.30
19138;DHT22;68178;52.188;5.598;2023-05-18T12:19:43;17.50;93.30
19138;DHT22;68178;52.188;5.598;2023-05-18T12:22:10;17.70;93.00
19138;DHT22;68178;52.188;5.598;2023-05-18T12:24:40;17.90;93.00
19138;DHT22;68178;52.188;5.598;2023-05-18T12:27:09;17.90;92.10
19138;DHT22;68178;52.188;5.598;2023-05-18T12:29:41;18.00;92.70
19138;DHT22;68178;52.188;5.598;2023-05-18T12:32:08;17.80;93.30
19138;DHT22;68178;52.188;5.598;2023-05-18T12:34:35;18.10;93.60
19138;DHT22;68178;52.188;5.598;2023-05-18T12:37:01;18.50;92.90
19138;DHT22;68178;52.188;5.598;2023-05-18T12:39:27;18.80;92.10
19138;DHT22;68178;52.188;5.598;2023-05-18T12:41:52;18.70;94.00
19138;DHT22;68178;52.188;5.598;2023-05-18T12:44:18;18.30;93.80
19138;DHT22;68178;52.188;5.598;2023-05-18T12:46:45;18.30;94.30
19138;DHT22;68178;52.188;5.598;2023-05-18T12:49:11;18.50;93.80
19138;DHT22;68178;52.188;5.598;2023-05-18T12:51:37;18.90;92.50
19138;DHT22;68178;52.188;5.598;2023-05-18T12:54:04;18.80;91.30
19138;DHT22;68178;52.188;5.598;2023-05-18T12:59:20;19.50;95.50
19138;DHT22;68178;52.188;5.598;2023-05-18T13:01:46;19.60;93.50
19138;DHT22;68178;52.188;5.598;2023-05-18T13:04:12;20.00;91.70
19138;DHT22;68178;52.188;5.598;2023-05-18T13:06:38;19.80;92.30
19138;DHT22;68178;52.188;5.598;2023-05-18T13:09:11;19.80;91.20
19138;DHT22;68178;52.188;5.598;2023-05-18T13:11:37;20.10;92.30
19138;DHT22;68178;52.188;5.598;2023-05-18T13:14:05;19.80;92.10
19138;DHT22;68178;52.188;5.598;2023-05-18T13:16:33;20.10;89.30
19138;DHT22;68178;52.188;5.598;2023-05-18T13:19:01;19.70;87.70
19138;DHT22;68178;52.188;5.598;2023-05-18T13:21:27;19.90;89.10
19138;DHT22;68178;52.188;5.598;2023-05-18T13:23:53;20.60;90.50
19138;DHT22;68178;52.188;5.598;2023-05-18T13:26:22;20.60;85.00
19138;DHT22;68178;52.188;5.598;2023-05-18T13:28:51;20.80;88.80
19138;DHT22;68178;52.188;5.598;2023-05-18T13:31:17;20.50;90.70
19138;DHT22;68178;52.188;5.598;2023-05-18T13:33:43;21.20;89.20
19138;DHT22;68178;52.188;5.598;2023-05-18T13:36:09;21.00;90.20
19138;DHT22;68178;52.188;5.598;2023-05-18T13:38:35;21.20;86.40
19138;DHT22;68178;52.188;5.598;2023-05-18T13:41:02;21.80;85.70
19138;DHT22;68178;52.188;5.598;2023-05-18T13:43:28;21.50;86.70
19138;DHT22;68178;52.188;5.598;2023-05-18T13:45:54;21.20;87.30
19138;DHT22;68178;52.188;5.598;2023-05-18T13:48:19;20.80;90.30
19138;DHT22;68178;52.188;5.598;2023-05-18T13:50:45;20.90;88.80
19138;DHT22;68178;52.188;5.598;2023-05-18T13:53:10;21.00;87.20
19138;DHT22;68178;52.188;5.598;2023-05-18T13:55:36;21.30;83.60
19138;DHT22;68178;52.188;5.598;2023-05-18T13:58:02;21.50;81.60
19138;DHT22;68178;52.188;5.598;2023-05-18T14:00:27;21.70;81.10
19138;DHT22;68178;52.188;5.598;2023-05-18T14:02:53;22.00;79.70
19138;DHT22;68178;52.188;5.598;2023-05-18T14:05:18;22.20;79.10
19138;DHT22;68178;52.188;5.598;2023-05-18T14:07:44;22.20;78.40
19138;DHT22;68178;52.188;5.598;2023-05-18T14:10:12;22.30;78.60
19138;DHT22;68178;52.188;5.598;2023-05-18T14:12:38;22.20;78.80
19138;DHT22;68178;52.188;5.598;2023-05-18T14:15:04;21.80;79.60
19138;DHT22;68178;52.188;5.598;2023-05-18T14:17:30;22.10;79.80
19138;DHT22;68178;52.188;5.598;2023-05-18T14:19:57;22.10;77.50
19138;DHT22;68178;52.188;5.598;2023-05-18T14:22:23;22.20;80.90
19138;DHT22;68178;52.188;5.598;2023-05-18T14:24:50;22.30;79.60
19138;DHT22;68178;52.188;5.598;2023-05-18T14:27:16;22.60;76.80
19138;DHT22;68178;52.188;5.598;2023-05-18T14:29:42;22.40;79.30
19138;DHT22;68178;52.188;5.598;2023-05-18T14:32:07;22.00;78.80
19138;DHT22;68178;52.188;5.598;2023-05-18T14:34:33;21.40;81.80
19138;DHT22;68178;52.188;5.598;2023-05-18T14:36:58;20.70;84.60
19138;DHT22;68178;52.188;5.598;2023-05-18T14:39:24;20.70;83.00
19138;DHT22;68178;52.188;5.598;2023-05-18T14:41:49;20.40;87.70
19138;DHT22;68178;52.188;5.598;2023-05-18T14:44:15;20.10;88.20
19138;DHT22;68178;52.188;5.598;2023-05-18T14:46:40;19.80;83.50
19138;DHT22;68178;52.188;5.598;2023-05-18T14:49:07;19.80;84.10
19138;DHT22;68178;52.188;5.598;2023-05-18T14:51:32;19.80;86.50
19138;DHT22;68178;52.188;5.598;2023-05-18T14:53:58;19.10;86.10
19138;DHT22;68178;52.188;5.598;2023-05-18T14:56:23;18.20;89.10
19138;DHT22;68178;52.188;5.598;2023-05-18T14:58:49;18.20;90.00
19138;DHT22;68178;52.188;5.598;2023-05-18T15:01:18;18.50;89.20
19138;DHT22;68178;52.188;5.598;2023-05-18T15:03:44;18.60;88.40
19138;DHT22;68178;52.188;5.598;2023-05-18T15:06:09;18.50;90.00
19138;DHT22;68178;52.188;5.598;2023-05-18T15:08:35;18.60;90.60
19138;DHT22;68178;52.188;5.598;2023-05-18T15:11:00;18.60;88.60
19138;DHT22;68178;52.188;5.598;2023-05-18T15:13:26;18.60;87.20
19138;DHT22;68178;52.188;5.598;2023-05-18T15:15:52;18.50;90.70
19138;DHT22;68178;52.188;5.598;2023-05-18T15:18:18;18.40;91.20
19138;DHT22;68178;52.188;5.598;2023-05-18T15:20:43;18.40;88.90
19138;DHT22;68178;52.188;5.598;2023-05-18T15:23:09;18.50;90.20
19138;DHT22;68178;52.188;5.598;2023-05-18T15:25:36;18.40;87.10
19138;DHT22;68178;52.188;5.598;2023-05-18T15:28:01;18.40;86.70
19138;DHT22;68178;52.188;5.598;2023-05-18T15:30:27;18.40;86.80
19138;DHT22;68178;52.188;5.598;2023-05-18T15:32:54;18.60;87.00
19138;DHT22;68178;52.188;5.598;2023-05-18T15:35:20;18.80;88.40
19138;DHT22;68178;52.188;5.598;2023-05-18T15:37:47;19.00;89.20
19138;DHT22;68178;52.188;5.598;2023-05-18T15:40:15;19.00;88.80
19138;DHT22;68178;52.188;5.598;2023-05-18T15:42:41;18.60;90.20
19138;DHT22;68178;52.188;5.598;2023-05-18T15:45:07;18.70;90.80
19138;DHT22;68178;52.188;5.598;2023-05-18T15:47:35;18.80;90.60
19138;DHT22;68178;52.188;5.598;2023-05-18T15:50:01;18.50;89.10
19138;DHT22;68178;52.188;5.598;2023-05-18T15:52:26;18.30;90.00
19138;DHT22;68178;52.188;5.598;2023-05-18T15:54:58;18.10;90.30
19138;DHT22;68178;52.188;5.598;2023-05-18T15:57:23;18.00;91.50
19138;DHT22;68178;52.188;5.598;2023-05-18T15:59:55;17.70;91.20
19138;DHT22;68178;52.188;5.598;2023-05-18T16:02:29;17.70;90.60
19138;DHT22;68178;52.188;5.598;2023-05-18T16:04:55;17.60;90.20